Terminal Aerodrome Forecast
Issued by NWS Central Illinois

Home | Current Version | Previous Version | Text Only | Print | Product List | Glossary On
Versions: 1 2 3 4 5 6 7 8 9 10 11 12 13 14 15 16 17 18 19 20
058
FTUS43 KILX 241738
TAFSPI
TAF
KSPI 241738Z 2418/2518 01010KT P6SM BKN020
     FM241900 36010KT P6SM SCT025 BKN090
     FM242100 01005KT P6SM SCT090
     FM250800 35007KT 5SM BR SCT120
     FM251400 02008KT P6SM BKN250=

USA.gov is the U.S. government's official web portal to all federal, state and local government web resources and services.